Tiempo atmosférico en la estación meteorológica de Boadilla Fuente San Esteban, Salamanca (785 m.)



Fecha
DESCASC
Temp. máxima en grados centígrados (hora)
DESCASC
Temp. mínima en grados centígrados (hora)
DESCASC
Temp. media en grados centígrados
DESCASC
Racha de viento máxima en m/sg (hora)
DESCASC
Velocidad máxima media en intervalos de 10 minutos(hora)
DESCASC
Precipitaciones diarias en mm
DESCASC
Precipitaciones de 00:00 a 06:00 en mm
DESCASC
Precipitaciones de 06:00 a 12:00 en mm
DESCASC
Precipitaciones de 12:00 a 18:00 en mm
DESCASC
Precipitaciones de 18:00 a 24:00 en mm
DESCASC
16-04-2019 17.9 (17:30) 1.4 (07:30) 9.6 7.5 (18:20) 5.28 (18:30) 0.2 0 0.2 0 0
15-04-2019 17.4 (13:50) 7.3 (23:59) 12.3 15.28 (15:30) 9.72 (15:30) 1.4 0 0 1.4 0
14-04-2019 19 (17:40) 10.1 (00:00) 14.6 6.94 (01:30) 3.33 (18:50) 0 0 0 0 0
13-04-2019 19.2 (16:50) 3.8 (00:00) 11.5 8.33 (19:00) 5 (19:30) 0 0 0 0 0
12-04-2019 15.7 (18:40) 0.2 (00:00) 7.9 6.39 (13:30) 2.5 (03:40) 0 0 0 0 0
11-04-2019 13.2 (19:00) -0.1 (00:00) 6.5 6.94 (18:00) 3.89 (19:20) 0 0 0 0 0
10-04-2019 12.7 (17:30) 4.9 (00:00) 8.8 11.67 (17:30) 6.94 (15:20) 5.8 0 0.6 0 5.2
09-04-2019 10.7 (15:20) 3.5 (00:00) 7.1 12.5 (16:40) 7.22 (16:40) 6.6 0 5.6 0.4 0.6
08-04-2019 13.2 (16:30) 5 (00:00) 9.1 13.33 (17:10) 8.06 (17:10) 2.6 2.4 0.2 0 0
07-04-2019 9.7 (19:50) 2.6 (00:00) 6.1 10.28 (21:40) 6.11 (15:20) 1.2 0 0 0.8 0.4
06-04-2019 7.6 (17:20) 1.8 (00:00) 4.7 14.44 (20:30) 8.61 (14:30) 6 0 1.8 2.8 1.4
05-04-2019 9.1 (17:10) 1.7 (00:00) 5.4 14.44 (17:40) 8.06 (17:50) 3.6 2.4 0 0.4 0.8
04-04-2019 11.7 (16:50) -3.6 (-00:0) 4 10.56 (17:00) 6.39 (17:30) 1.2 0 0 0 1.2
03-04-2019 11.1 (17:30) 2.2 (23:59) 6.7 11.39 (16:00) 7.22 (17:50) 0 0 0 0 0
02-04-2019 17.3 (16:50) 6 (00:00) 11.6 13.33 (18:10) 6.11 (18:10) 0 0 0 0 0
01-04-2019 16.5 (16:00) 3.1 (00:00) 9.8 7.5 (18:00) 5.28 (18:00) 0 0 0 0 0
31-03-2019 17.6 (15:40) 0.6 (00:00) 9.1 7.78 (17:10) 4.72 (16:30) 0 0 0 0 0
30-03-2019 18.3 (16:00) 2.5 (00:00) 10.4 6.11 (16:10) 3.89 (08:10) 0 0 0 0 0
29-03-2019 17.7 (17:20) -0.7 (-00:0) 8.5 5.83 (15:10) 3.06 (20:40) 0 0 0 0 0
28-03-2019 17.3 (17:00) 0.3 (00:00) 8.8 6.39 (00:30) 5 (09:10) 0 0 0 0 0
27-03-2019 17.3 (16:10) 0.9 (00:00) 9.1 10.83 (00:30) 7.22 (00:30) 0 0 0 0 0
26-03-2019 18.2 (17:10) -0.6 (-00:0) 8.8 12.78 (17:20) 9.44 (04:00) 0 0 0 0 0
25-03-2019 17.7 (15:30) 2.7 (00:00) 10.2 11.67 (16:50) 8.33 (17:10) 0 0 0 0 0
24-03-2019 18.9 (16:20) 5.2 (00:00) 12 11.39 (14:40) 8.33 (14:20) 0 0 0 0 0
23-03-2019 18.9 (16:50) -0.1 (00:00) 9.4 8.89 (16:30) 5.28 (16:00) 0 0 0 0 0
22-03-2019 16.4 (16:50) -1.9 (-00:0) 7.2 6.94 (17:20) 4.44 (17:50) 0 0 0 0 0
21-03-2019 14.1 (15:30) -2 (-00:0) 6.1 6.67 (09:50) 5 (09:30) 0 0 0 0 0
20-03-2019 12.3 (16:30) 0.1 (00:00) 6.2 13.33 (14:50) 9.17 (12:00) 0 0 0 0 0
19-03-2019 12.9 (17:10) 0.4 (00:00) 6.6 11.39 (13:30) 8.33 (13:30) 0 0 0 0 0

Gráficas

Temp. máximas Temp. mínimas Temp. medias Precipitaciones Rachas de viento máximas Velocidades máximas media en intervalos de 10 minutos

Datos horarios

Fecha y hora oficial Temperatura (ºC) Velocidad del viento (km/h) Dirección del viento Racha (km/h) Dirección de racha Precipitación (mm) Presión (hPa) Tendencia (hPa) Humedad (%)
2019-04-17 23:00:00 9.1 2 Sudeste 16 Sudeste 0.2 -- -- 92
2019-04-17 22:00:00 9 12 Sur 23 Sur 1 -- -- 90
2019-04-17 21:00:00 9.1 15 Sur 32 Sudoeste 2.2 -- -- 91
2019-04-17 20:00:00 9.3 14 Sudoeste 35 Oeste 3 -- -- 94
2019-04-17 19:00:00 12.6 24 Sudoeste 45 Sur 0 -- -- 79
2019-04-17 18:00:00 15.8 31 Sur 55 Sur 0 -- -- 55
2019-04-17 17:00:00 16.6 27 Sur 49 Sudeste 0 -- -- 53
2019-04-17 16:00:00 16.2 33 Sur 50 Sur 0 -- -- 52
2019-04-17 15:00:00 16.5 29 Sur 45 Sudeste 0 -- -- 52
2019-04-17 14:00:00 16.8 26 Sur 49 Sur 0 -- -- 49
2019-04-17 13:00:00 15.6 31 Sur 50 Sur 0 -- -- 55
2019-04-17 12:00:00 15.3 18 Sur 36 Sudeste 0 -- -- 57
2019-04-17 11:00:00 13.5 7 Nordeste 16 Norte 0 -- -- 64
2019-04-17 10:00:00 13 12 Nordeste 26 Nordeste 0 -- -- 65
2019-04-17 09:00:00 12.8 14 Nordeste 46 Este 0 -- -- 62
2019-04-17 08:00:00 12.7 13 Este 27 Sudeste 0 -- -- 61
2019-04-17 07:00:00 12.6 9 Sudeste 31 Este 0 -- -- 60
2019-04-17 06:00:00 12.6 15 Sudeste 27 Este 0 -- -- 59
2019-04-17 05:00:00 13 15 Sur 40 Sur 0 -- -- 55
2019-04-17 04:00:00 13.9 19 Sur 39 Sudeste 0 -- -- 52
2019-04-17 03:00:00 14.3 10 Sur 25 Sudeste 0 -- -- 51
2019-04-17 02:00:00 13.4 8 Este 21 Este 0 -- -- 54
2019-04-17 01:00:00 11 14 Este 20 Este 0 -- -- 67
2019-04-17 00:00:00 10.7 11 Este 14 Este 0 -- -- 68
2019-04-16 23:00:00 10.4 7 Este 13 Este 0 -- -- 72
2019-04-16 22:00:00 11.8 3 Sudeste 9 Este 0 -- -- 68
2019-04-16 21:00:00 13.9 2 Sudeste 14 Sur 0 -- -- 60
2019-04-16 20:00:00 15.6 8 Sur 21 Sudoeste 0 -- -- 51
2019-04-16 19:00:00 16.7 15 Sur 27 Sur 0 -- -- 47
2019-04-16 18:00:00 17.3 14 Sudoeste 24 Sur 0 -- -- 41
2019-04-16 17:00:00 17.2 14 Sur 25 Sudeste 0 -- -- 40
2019-04-16 16:00:00 17.2 14 Sudeste 25 Sudeste 0 -- -- 40
2019-04-16 15:00:00 16.9 6 Sudeste 24 Sur 0 -- -- 45
2019-04-16 14:00:00 15.5 6 Oeste 19 Sudoeste 0 -- -- 56
2019-04-16 13:00:00 14.7 10 Sudoeste 15 Sudoeste 0 -- -- 61
2019-04-16 12:00:00 13.5 9 Sudeste 22 Este 0 -- -- 66
2019-04-16 11:00:00 11.4 14 Este 21 Este 0 -- -- 77
2019-04-16 10:00:00 8.5 8 Este 14 Este 0 -- -- 91
2019-04-16 09:00:00 4.7 10 Este 14 Este 0 -- -- 98
2019-04-16 08:00:00 1.5 4 Este 5 Este 0 -- -- 97
2019-04-16 07:00:00 2.7 5 Sudeste 10 Sudeste 0.2 -- -- 97
2019-04-16 06:00:00 2.9 7 Sudeste 10 Este 0 -- -- 96
2019-04-16 05:00:00 3 0 Calma 9 Sur 0 -- -- 95
2019-04-16 04:00:00 4.1 6 Sudeste 10 Sudeste 0 -- -- 96
2019-04-16 03:00:00 4.5 6 Sur 11 Sudeste 0 -- -- 96
2019-04-16 02:00:00 4.2 4 Sur 6 Sur 0 -- -- 93
2019-04-16 01:00:00 6.2 3 Sudoeste 11 Sudoeste 0 -- -- 90
2019-04-16 00:00:00 7.3 8 Sudoeste 12 Sudoeste 0 -- -- 85
2019-04-15 23:00:00 8.3 6 Oeste 15 Sudoeste 0 -- -- 87
2019-04-15 22:00:00 9.1 10 Sudoeste 18 Oeste 0 -- -- 84
2019-04-15 21:00:00 10.7 6 Oeste 39 Oeste 0 -- -- 76
2019-04-15 20:00:00 11.9 12 Sudoeste 21 Sur 0 -- -- 85
2019-04-15 19:00:00 11.3 10 Sudoeste 17 Sudoeste 0 -- -- 87
2019-04-15 18:00:00 11.4 10 Oeste 20 Sudoeste 0.2 -- -- 86
2019-04-15 17:00:00 9.4 10 Sudoeste 31 Oeste 1.2 -- -- 92
2019-04-15 16:00:00 10.1 23 Oeste 55 Oeste 0 -- -- 82
2019-04-15 15:00:00 14.9 27 Oeste 44 Oeste 0 -- -- 64
2019-04-15 14:00:00 17.4 23 Sudoeste 46 Sudoeste 0 -- -- 51
2019-04-15 13:00:00 16.8 26 Sudoeste 46 Sudoeste 0 -- -- 60
2019-04-15 12:00:00 16.6 24 Sudoeste 44 Sudoeste 0 -- -- 69
2019-04-15 11:00:00 16.3 23 Sur 41 Sur 0 -- -- 72
2019-04-15 10:00:00 14.9 8 Sudoeste 16 Sur 0 -- -- 81
2019-04-15 09:00:00 13.4 6 Sur 10 Sur 0 -- -- 87
2019-04-15 08:00:00 12.7 8 Sur 14 Sudeste 0 -- -- 88
2019-04-15 07:00:00 12.8 8 Sudeste 12 Sudeste 0 -- -- 88
2019-04-15 06:00:00 12.4 4 Sudeste 12 Sudeste 0 -- -- 88
2019-04-15 05:00:00 12.6 7 Sudeste 14 Sur 0 -- -- 89
2019-04-15 04:00:00 11.2 0 Calma 4 Sudeste 0 -- -- 90
2019-04-15 03:00:00 11.8 2 Sudeste 12 Sudeste 0 -- -- 89
2019-04-15 02:00:00 11.4 8 Sudeste 10 Sudeste 0 -- -- 88
2019-04-15 01:00:00 11.4 6 Sudeste 9 Sudeste 0 -- -- 87
2019-04-15 00:00:00 12.4 6 Sudeste 9 Sudeste 0 -- -- 84
2019-04-14 23:00:00 14.3 4 Sudeste 9 Sur 0 -- -- 79
2019-04-14 22:00:00 14.6 5 Sudeste 8 Sudeste 0 -- -- 80
2019-04-14 21:00:00 16.4 2 Sur 4 Sur 0 -- -- 72
2019-04-14 20:00:00 18.3 3 Sudoeste 18 Oeste 0 -- -- 66
2019-04-14 19:00:00 18.2 11 Oeste 22 Oeste 0 -- -- 66
2019-04-14 18:00:00 18.7 10 Oeste 20 Sudoeste 0 -- -- 64
2019-04-14 17:00:00 18.8 8 Oeste 19 Sudoeste 0 -- -- 64
2019-04-14 16:00:00 18.5 6 Noroeste 19 Oeste 0 -- -- 67
2019-04-14 15:00:00 17.7 8 Oeste 24 Oeste 0 -- -- 70
2019-04-14 14:00:00 16.8 10 Oeste 19 Oeste 0 -- -- 73
2019-04-14 13:00:00 16.7 7 Sudoeste 15 Sudoeste 0 -- -- 71
2019-04-14 12:00:00 15 7 Sudoeste 13 Sudoeste 0 -- -- 77
2019-04-14 11:00:00 13.5 4 Sur 10 Sur 0 -- -- 86
2019-04-14 10:00:00 12.3 0 Calma 8 Sudoeste 0 -- -- 90
2019-04-14 09:00:00 11.5 5 Sudoeste 9 Sudoeste 0 -- -- 93
2019-04-14 08:00:00 10.8 3 Oeste 8 Oeste 0 -- -- 95
2019-04-14 07:00:00 10.5 4 Sudoeste 8 Sudoeste 0 -- -- 95
2019-04-14 06:00:00 10.4 5 Sudoeste 9 Sur 0 -- -- 95
2019-04-14 05:00:00 10.5 4 Sudoeste 10 Sudoeste 0 -- -- 95
2019-04-14 04:00:00 11.5 6 Sudoeste 13 Sudoeste 0 -- -- 93
2019-04-14 03:00:00 11.8 7 Sudoeste 11 Sudoeste 0 -- -- 94
2019-04-14 02:00:00 11.5 8 Sudoeste 25 Oeste 0 -- -- 91
2019-04-14 01:00:00 12 6 Sudoeste 18 Oeste 0 -- -- 88
2019-04-14 00:00:00 12.5 11 Oeste 21 Oeste 0 -- -- 84
2019-04-13 23:00:00 12.6 6 Oeste 11 Oeste 0 -- -- 77
2019-04-13 22:00:00 13.6 7 Oeste 17 Oeste 0 -- -- 70
2019-04-13 21:00:00 15.3 9 Oeste 21 Oeste 0 -- -- 59
2019-04-13 20:00:00 16.6 13 Oeste 28 Oeste 0 -- -- 53
2019-04-13 19:00:00 18.3 16 Oeste 30 Oeste 0 -- -- 48
2019-04-13 18:00:00 19.2 5 Sudoeste 24 Sudoeste 0 -- -- 41
2019-04-13 17:00:00 19.2 8 Oeste 22 Noroeste 0 -- -- 34
2019-04-13 16:00:00 18.7 7 Oeste 18 Oeste 0 -- -- 38
2019-04-13 15:00:00 17.9 5 Oeste 16 Oeste 0 -- -- 41
2019-04-13 14:00:00 17.2 4 Noroeste 12 Noroeste 0 -- -- 44
2019-04-13 13:00:00 16.2 5 Este 15 Este 0 -- -- 38
2019-04-13 12:00:00 14.5 5 Este 10 Este 0 -- -- 51
2019-04-13 11:00:00 11.5 4 Sur 6 Sudeste 0 -- -- 74
2019-04-13 10:00:00 10.2 4 Sudeste 6 Sudeste 0 -- -- 81
2019-04-13 09:00:00 7 6 Sudeste 8 Sudeste 0 -- -- 88
2019-04-13 08:00:00 5.7 6 Sudeste 10 Sudeste 0 -- -- 91
2019-04-13 07:00:00 5.6 8 Sudeste 10 Sudeste 0 -- -- 91
2019-04-13 06:00:00 5.4 6 Sudeste 8 Sudeste 0 -- -- 91
2019-04-13 05:00:00 5 6 Sur 9 Sudeste 0 -- -- 90
2019-04-13 04:00:00 4.8 6 Sur 8 Sudeste 0 -- -- 92
2019-04-13 03:00:00 3.9 0 Calma 14 Oeste 0 -- -- 87
2019-04-13 02:00:00 5.1 9 Sudeste 12 Sudeste 0 -- -- 84
2019-04-13 01:00:00 6.1 10 Sudeste 15 Sudeste 0 -- -- 80
2019-04-13 00:00:00 6.3 5 Sudeste 8 Este 0 -- -- 81
2019-04-12 23:00:00 6.9 6 Este 8 Este 0 -- -- 77
2019-04-12 22:00:00 8.6 0 Calma -- -- 0 -- -- 69
2019-04-12 21:00:00 13.2 3 Noroeste 6 Sudoeste 0 -- -- 51
2019-04-12 20:00:00 15.3 4 Norte 10 Noroeste 0 -- -- 46
2019-04-12 19:00:00 15.5 6 Noroeste 14 Oeste 0 -- -- 47
2019-04-12 18:00:00 15.2 3 Este 16 Oeste 0 -- -- 45
2019-04-12 17:00:00 15.3 8 Oeste 18 Oeste 0 -- -- 48
2019-04-12 16:00:00 14.9 8 Noroeste 16 Noroeste 0 -- -- 51
2019-04-12 15:00:00 14.2 9 Noroeste 18 Norte 0 -- -- 49
2019-04-12 14:00:00 13.4 4 Noroeste 23 Oeste 0 -- -- 54
2019-04-12 13:00:00 12.5 3 Sudoeste 10 Norte 0 -- -- 54
2019-04-12 12:00:00 11 3 Nordeste 8 Nordeste 0 -- -- 62
2019-04-12 11:00:00 9.1 0 Calma 6 Nordeste 0 -- -- 67
2019-04-12 10:00:00 5.8 2 Sudeste 5 Sudeste 0 -- -- 77
2019-04-12 09:00:00 2.2 4 Este 7 Este 0 -- -- 89
2019-04-12 08:00:00 0.5 2 Sudoeste 12 Este 0 -- -- 90
2019-04-12 07:00:00 0.9 3 Sudeste 8 Sudeste 0 -- -- 89
2019-04-12 06:00:00 2.4 5 Sudeste 12 Este 0 -- -- 88
2019-04-12 05:00:00 2.8 6 Sudeste 9 Sudeste 0 -- -- 90
2019-04-12 04:00:00 1.4 5 Este 17 Nordeste 0 -- -- 93
2019-04-12 03:00:00 2.4 8 Sudeste 12 Sudeste 0 -- -- 88
2019-04-12 02:00:00 2.6 0 Calma 6 Sur 0 -- -- 88
2019-04-12 01:00:00 3.7 3 Sudeste 10 Sudeste 0 -- -- 85
2019-04-12 00:00:00 5.3 5 Sur 6 Sur 0 -- -- 78
2019-04-11 23:00:00 5.8 2 Norte 6 Este 0 -- -- 74
2019-04-11 22:00:00 7.4 4 Este 4 Este 0 -- -- 69
2019-04-11 21:00:00 10 4 Este 10 Nordeste 0 -- -- 60
2019-04-11 20:00:00 11.4 9 Nordeste 19 Nordeste 0 -- -- 59
2019-04-11 19:00:00 13.2 5 Norte 16 Nordeste 0 -- -- 45
2019-04-11 18:00:00 12.9 13 Norte 25 Nordeste 0 -- -- 54
2019-04-11 17:00:00 12.3 8 Norte 18 Norte 0 -- -- 52
2019-04-11 16:00:00 11.7 10 Nordeste 17 Nordeste 0 -- -- 58
2019-04-11 15:00:00 11.4 7 Nordeste 18 Nordeste 0 -- -- 59
2019-04-11 14:00:00 10.2 10 Norte 17 Norte 0 -- -- 63
2019-04-11 13:00:00 10.1 10 Norte 17 Norte 0 -- -- 64
2019-04-11 12:00:00 8.9 7 Nordeste 13 Nordeste 0 -- -- 73
2019-04-11 11:00:00 6.9 6 Norte 10 Norte 0 -- -- 95
2019-04-11 10:00:00 3.5 4 Nordeste 8 Este 0 -- -- 100
2019-04-11 09:00:00 0.9 0 Calma 5 Este 0 -- -- 99
2019-04-11 08:00:00 -0.1 3 Este 5 Este 0 -- -- 98
2019-04-11 07:00:00 0.6 2 Este 9 Este 0 -- -- 97
2019-04-11 06:00:00 1 2 Nordeste 5 Sudeste 0 -- -- 97
2019-04-11 05:00:00 2 3 Sudeste 6 Este 0 -- -- 96
2019-04-11 04:00:00 2.8 5 Este 7 Este 0 -- -- 97
2019-04-11 03:00:00 3.5 0 Calma 6 Sudoeste 0 -- -- 96
2019-04-11 02:00:00 4.3 3 Sur 6 Sudoeste 0 -- -- 95
2019-04-11 01:00:00 5.7 3 Sudoeste 8 Sudoeste 0 -- -- 94
2019-04-11 00:00:00 6.5 5 Oeste 15 Sudoeste 0.4 -- -- 94
2019-04-10 23:00:00 6.6 7 Noroeste 17 Norte 1.8 -- -- 92
2019-04-10 22:00:00 6.4 5 Sudoeste 15 Noroeste 1.2 -- -- 92
2019-04-10 21:00:00 6.5 7 Oeste 25 Nordeste 1.8 -- -- 84
2019-04-10 20:00:00 7.6 9 Este 31 Este 0 -- -- 76
2019-04-10 19:00:00 11.8 14 Noroeste 36 Oeste 0 -- -- 60
2019-04-10 18:00:00 12.2 22 Noroeste 42 Oeste 0 -- -- 57
2019-04-10 17:00:00 12.4 22 Noroeste 37 Oeste 0 -- -- 60
2019-04-10 16:00:00 11.9 22 Oeste 38 Oeste 0 -- -- 64
2019-04-10 15:00:00 11.2 21 Noroeste 36 Oeste 0 -- -- 69
2019-04-10 14:00:00 10.4 21 Noroeste 33 Oeste 0 -- -- 68
2019-04-10 13:00:00 9 19 Noroeste 31 Noroeste 0 -- -- 71
2019-04-10 12:00:00 8.5 18 Noroeste 32 Noroeste 0 -- -- 77
2019-04-10 11:00:00 7.4 17 Oeste 28 Oeste 0 -- -- 89
2019-04-10 10:00:00 5.9 12 Oeste 26 Sudoeste 0 -- -- 94
2019-04-10 09:00:00 5.5 13 Sudoeste 19 Oeste 0.2 -- -- 96
2019-04-10 08:00:00 5 13 Sudoeste 27 Sudoeste 0.2 -- -- 96
2019-04-10 07:00:00 4.9 13 Sudoeste 23 Sudoeste 0.2 -- -- 95
2019-04-10 06:00:00 5.1 11 Sudoeste 20 Sudoeste 0 -- -- 93
2019-04-10 05:00:00 5.2 9 Sudoeste 25 Oeste 0 -- -- 90
2019-04-10 04:00:00 5.4 15 Sudoeste 23 Sudoeste 0 -- -- 91
2019-04-10 03:00:00 5.3 9 Sudoeste 17 Oeste 0 -- -- 93
2019-04-10 02:00:00 5.6 9 Sudoeste 22 Sudoeste 0 -- -- 94
2019-04-10 01:00:00 5.5 9 Sudoeste 19 Oeste 0 -- -- 95
2019-04-10 00:00:00 6.1 9 Oeste 25 Sudoeste 0.2 -- -- 93
2019-04-09 23:00:00 6.7 16 Oeste 32 Oeste 0.2 -- -- 89
2019-04-09 22:00:00 6.9 14 Sudoeste 39 Oeste 0.2 -- -- 89
2019-04-09 21:00:00 8.1 24 Oeste 37 Sudoeste 0 -- -- 75
2019-04-09 20:00:00 9 22 Oeste 38 Oeste 0 -- -- 75
2019-04-09 19:00:00 9.5 24 Sudoeste 40 Oeste 0 -- -- 72
2019-04-09 18:00:00 9.6 20 Oeste 42 Oeste 0 -- -- 72
2019-04-09 17:00:00 8.7 15 Oeste 45 Oeste 0.2 -- -- 82
2019-04-09 16:00:00 10.3 19 Oeste 35 Oeste 0.2 -- -- 65
2019-04-09 15:00:00 10.6 21 Oeste 40 Oeste 0 -- -- 60
2019-04-09 14:00:00 9.5 21 Oeste 37 Oeste 0 -- -- 70
2019-04-09 13:00:00 7.5 18 Oeste 32 Oeste 0 -- -- 84
2019-04-09 12:00:00 5.1 15 Sudoeste 27 Sudoeste 0.8 -- -- 93
2019-04-09 11:00:00 3.5 14 Oeste 35 Oeste 4 -- -- 95
2019-04-09 10:00:00 5.4 19 Sudoeste 37 Sudoeste 0.8 -- -- 90
2019-04-09 09:00:00 5.8 16 Sudoeste 29 Sudoeste 0 -- -- 91
2019-04-09 08:00:00 5.6 17 Sudoeste 29 Sudoeste 0 -- -- 90
2019-04-09 07:00:00 5.5 15 Sudoeste 26 Sudoeste 0 -- -- 90
2019-04-09 06:00:00 5.5 15 Sudoeste 28 Sudoeste 0 -- -- 89
2019-04-09 05:00:00 5.4 15 Sudoeste 26 Sudoeste 0 -- -- 87
2019-04-09 04:00:00 4.7 14 Sur 26 Sur 0 -- -- 87
2019-04-09 03:00:00 4.6 13 Sur 21 Sur 0 -- -- 89
2019-04-09 02:00:00 5.2 10 Sur 18 Sur 0 -- -- 87
2019-04-09 01:00:00 4.9 7 Sur 12 Sudoeste 0 -- -- 89
2019-04-09 00:00:00 6 6 Sudoeste 15 Sudoeste 0 -- -- 86
2019-04-08 23:00:00 5 8 Sur 15 Sur 0 -- -- 90
2019-04-08 22:00:00 6.7 9 Sur 19 Sudoeste 0 -- -- 84
2019-04-08 21:00:00 8.1 6 Sudoeste 15 Sudoeste 0 -- -- 81
2019-04-08 20:00:00 8.2 9 Sudoeste 25 Sudoeste 0 -- -- 78
2019-04-08 19:00:00 8.8 20 Sudoeste 29 Sudoeste 0 -- -- 79
2019-04-08 18:00:00 9.1 15 Oeste 48 Oeste 0 -- -- 72
2019-04-08 17:00:00 11.5 20 Oeste 33 Oeste 0 -- -- 62
2019-04-08 16:00:00 12.8 16 Oeste 31 Oeste 0 -- -- 48
2019-04-08 15:00:00 11.4 17 Sudoeste 30 Oeste 0 -- -- 57
2019-04-08 14:00:00 10.6 18 Sudoeste 33 Oeste 0 -- -- 62
2019-04-08 13:00:00 9.9 15 Oeste 31 Oeste 0 -- -- 63
2019-04-08 12:00:00 8.7 13 Oeste 23 Oeste 0 -- -- 83
2019-04-08 11:00:00 7.7 12 Oeste 28 Oeste 0.2 -- -- 88
2019-04-08 10:00:00 7.7 12 Sudoeste 20 Sudoeste 0 -- -- 89
2019-04-08 09:00:00 6.5 9 Sudoeste 17 Sudoeste 0 -- -- 93
2019-04-08 08:00:00 7 14 Oeste 24 Oeste 0 -- -- 92
2019-04-08 07:00:00 7.5 11 Oeste 24 Oeste 0 -- -- 94
2019-04-08 06:00:00 7.6 12 Oeste 27 Oeste 0 -- -- 93
2019-04-08 05:00:00 8.4 17 Sudoeste 36 Sudoeste 0.4 -- -- 94
2019-04-08 04:00:00 8.5 16 Sudoeste 29 Sudoeste 1.4 -- -- 95
2019-04-08 03:00:00 8.6 15 Sudoeste 35 Sur 0.6 -- -- 91
2019-04-08 02:00:00 8.7 22 Sudoeste 32 Sudoeste 0 -- -- 88
2019-04-08 01:00:00 9 19 Sur 36 Sur 0 -- -- 84
2019-04-08 00:00:00 8.8 17 Sudoeste 31 Sur 0 -- -- 85
2019-04-07 23:00:00 9 17 Sudoeste 36 Sudoeste 0 -- -- 86
2019-04-07 22:00:00 9.3 19 Sudoeste 37 Sudoeste 0 -- -- 86
2019-04-07 21:00:00 9.5 20 Sudoeste 36 Sudoeste 0.2 -- -- 83
2019-04-07 20:00:00 9.7 21 Sudoeste 33 Sudoeste 0 -- -- 82
2019-04-07 19:00:00 8.5 8 Sur 15 Sur 0.2 -- -- 90
2019-04-07 18:00:00 7.9 7 Sur 22 Sudoeste 0.4 -- -- 89
2019-04-07 17:00:00 7.7 12 Sur 27 Sudoeste 0.4 -- -- 86
2019-04-07 16:00:00 8.4 20 Sudoeste 32 Sudoeste 0 -- -- 78
2019-04-07 15:00:00 9.3 16 Sudoeste 32 Sudoeste 0 -- -- 69
2019-04-07 14:00:00 8.5 15 Sudoeste 23 Sudoeste 0 -- -- 75
2019-04-07 13:00:00 7.2 14 Sudoeste 22 Sudoeste 0 -- -- 81
2019-04-07 12:00:00 6.3 13 Sudoeste 22 Sur 0 -- -- 86
2019-04-07 11:00:00 5.7 12 Sudoeste 22 Sudoeste 0 -- -- 88
2019-04-07 10:00:00 5.4 14 Sudoeste 21 Sudoeste 0 -- -- 88
2019-04-07 09:00:00 4 12 Sudoeste 18 Sudoeste 0 -- -- 94
2019-04-07 08:00:00 3.3 11 Sudoeste 21 Sudoeste 0 -- -- 94
2019-04-07 07:00:00 3.6 8 Sudoeste 22 Sudoeste 0 -- -- 94
2019-04-07 06:00:00 3.3 8 Sudoeste 20 Sudoeste 0 -- -- 95
2019-04-07 05:00:00 2.7 8 Sudoeste 18 Sudoeste 0 -- -- 93
2019-04-07 04:00:00 3.1 9 Sudoeste 21 Oeste 0 -- -- 94
2019-04-07 03:00:00 3.4 9 Sudoeste 22 Sudoeste 0 -- -- 94
2019-04-07 02:00:00 3.6 13 Sudoeste 25 Oeste 0 -- -- 93
2019-04-07 01:00:00 3.9 15 Sudoeste 29 Sudoeste 0 -- -- 92
2019-04-07 00:00:00 3.9 17 Sudoeste 35 Sudoeste 0.2 -- -- 92
2019-04-06 23:00:00 4.2 15 Sudoeste 26 Sudoeste 0.2 -- -- 89
2019-04-06 22:00:00 4.1 13 Sudoeste 20 Sudoeste 0 -- -- 87
2019-04-06 21:00:00 4.2 10 Oeste 52 Oeste 0.4 -- -- 89
2019-04-06 20:00:00 6.3 19 Oeste 44 Oeste 0 -- -- 76
2019-04-06 19:00:00 7.2 15 Oeste 46 Oeste 0.6 -- -- 80
2019-04-06 18:00:00 7.1 23 Oeste 48 Oeste 0 -- -- 75
2019-04-06 17:00:00 5.7 18 Oeste 47 Oeste 1 -- -- 90
2019-04-06 16:00:00 4.8 22 Oeste 43 Oeste 1 -- -- 87
2019-04-06 15:00:00 6.2 28 Sudoeste 48 Sudoeste 0.4 -- -- 80
2019-04-06 14:00:00 5.3 22 Sudoeste 50 Sudoeste 0.4 -- -- 89
2019-04-06 13:00:00 5.9 30 Sudoeste 51 Sudoeste 0 -- -- 78
2019-04-06 12:00:00 4.7 27 Sudoeste 44 Sudoeste 0 -- -- 86
2019-04-06 11:00:00 3.1 23 Sudoeste 41 Sudoeste 0 -- -- 92
2019-04-06 10:00:00 2.2 22 Sudoeste 37 Sudoeste 0.6 -- -- 94
2019-04-06 09:00:00 2.4 21 Sudoeste 41 Sur 0.2 -- -- 94
2019-04-06 08:00:00 2.8 21 Sudoeste 37 Sudoeste 0.4 -- -- 94
2019-04-06 07:00:00 2.9 17 Sudoeste 31 Sudoeste 0.6 -- -- 93
2019-04-06 06:00:00 3.2 14 Sudoeste 35 Sudoeste 0 -- -- 89
2019-04-06 05:00:00 3.3 17 Sudoeste 27 Sudoeste 0 -- -- 85
2019-04-06 04:00:00 3.1 11 Sur 21 Sudoeste 0 -- -- 89
2019-04-06 03:00:00 2.8 10 Sudoeste 21 Sudoeste 0 -- -- 92
2019-04-06 02:00:00 3 13 Sudoeste 23 Sudoeste 0 -- -- 92
2019-04-06 01:00:00 2.9 11 Sudoeste 22 Sudoeste 0 -- -- 92
2019-04-06 00:00:00 2.6 9 Sudoeste 23 Sudoeste 0 -- -- 93
2019-04-05 23:00:00 2.8 12 Sudoeste 24 Oeste 0 -- -- 91
2019-04-05 22:00:00 3.1 9 Oeste 27 Oeste 0.4 -- -- 92
2019-04-05 21:00:00 3.4 19 Noroeste 32 Noroeste 0.2 -- -- 85
2019-04-05 20:00:00 5.4 8 Sudoeste 27 Sudoeste 0 -- -- 84
2019-04-05 19:00:00 5.6 11 Sudoeste 42 Oeste 0.2 -- -- 80
2019-04-05 18:00:00 5.1 26 Oeste 52 Oeste 0 -- -- 77
2019-04-05 17:00:00 8.9 15 Oeste 34 Oeste 0 -- -- 56
2019-04-05 16:00:00 7.8 19 Oeste 31 Sudoeste 0 -- -- 68
2019-04-05 15:00:00 6.1 16 Sudoeste 24 Sudoeste 0 -- -- 80
2019-04-05 14:00:00 3.2 13 Sudoeste 31 Oeste 0.4 -- -- 89
2019-04-05 13:00:00 4 14 Oeste 26 Oeste 0 -- -- 89
2019-04-05 12:00:00 4.7 12 Oeste 22 Sudoeste 0 -- -- 80
2019-04-05 11:00:00 4 13 Sudoeste 23 Oeste 0 -- -- 86
2019-04-05 10:00:00 3.3 15 Oeste 23 Oeste 0 -- -- 87
2019-04-05 09:00:00 3 9 Sudoeste 16 Sudoeste 0 -- -- 93
2019-04-05 08:00:00 1.7 9 Sudoeste 16 Sur 0 -- -- 94
2019-04-05 07:00:00 2 8 Sur 20 Sudoeste 0 -- -- 95
2019-04-05 06:00:00 2.3 16 Oeste 44 Sudoeste 1.8 -- -- 93
2019-04-05 05:00:00 4.6 14 Sudoeste 23 Sudoeste 0.2 -- -- 91
2019-04-05 04:00:00 4.9 19 Sudoeste 34 Sur 0 -- -- 88
2019-04-05 03:00:00 4.9 21 Sur 35 Sur 0 -- -- 86
2019-04-05 02:00:00 4.7 17 Sur 31 Sur 0.2 -- -- 89
2019-04-05 01:00:00 4.5 14 Sur 31 Sudoeste 0.2 -- -- 90
2019-04-05 00:00:00 4.3 17 Sur 30 Sur 0 -- -- 90
2019-04-04 23:00:00 4.2 15 Sur 27 Sur 0.2 -- -- 91
2019-04-04 22:00:00 4.6 11 Sudoeste 20 Sudoeste 0.8 -- -- 90
2019-04-04 21:00:00 5.2 9 Sudoeste 25 Oeste 0.2 -- -- 83
2019-04-04 20:00:00 7.2 13 Oeste 24 Oeste 0 -- -- 63
2019-04-04 19:00:00 8.6 14 Oeste 35 Oeste 0 -- -- 53
2019-04-04 18:00:00 10.4 17 Sudoeste 37 Sudoeste 0 -- -- 42
2019-04-04 17:00:00 11.6 21 Oeste 38 Sudoeste 0 -- -- 37
2019-04-04 16:00:00 10.6 18 Sudoeste 33 Sur 0 -- -- 40
2019-04-04 15:00:00 9.5 16 Oeste 28 Oeste 0 -- -- 44
2019-04-04 14:00:00 8.6 10 Sudoeste 23 Oeste 0 -- -- 52
2019-04-04 13:00:00 7.1 9 Sudoeste 16 Sudoeste 0 -- -- 56
2019-04-04 12:00:00 5.9 5 Oeste 16 Oeste 0 -- -- 58
2019-04-04 11:00:00 4.3 7 Sudoeste 17 Sudoeste 0 -- -- 66
2019-04-04 10:00:00 2.1 5 Sudoeste 9 Sudoeste 0 -- -- 74
2019-04-04 09:00:00 -1.5 4 Sudeste 10 Sur 0 -- -- 88
2019-04-04 08:00:00 -3.6 5 Sur 8 Sur 0 -- -- 89
2019-04-04 07:00:00 -2.9 5 Sur 8 Sur 0 -- -- 87
2019-04-04 06:00:00 -2.5 5 Sur 6 Sudoeste 0 -- -- 84
2019-04-04 05:00:00 -1.2 4 Oeste 6 Oeste 0 -- -- 82
2019-04-04 04:00:00 -0.9 3 Oeste 5 Oeste 0 -- -- 80
2019-04-04 03:00:00 0.3 5 Noroeste 13 Noroeste 0 -- -- 74
2019-04-04 02:00:00 1.1 6 Noroeste 12 Noroeste 0 -- -- 70
2019-04-04 01:00:00 2.1 2 Norte 24 Noroeste 0 -- -- 64
2019-04-04 00:00:00 2.2 3 Noroeste 14 Noroeste 0 -- -- 65
2019-04-03 23:00:00 3.5 10 Noroeste 26 Norte 0 -- -- 60
2019-04-03 22:00:00 5.1 13 Noroeste 26 Noroeste 0 -- -- 57
2019-04-03 21:00:00 7 13 Noroeste 31 Noroeste 0 -- -- 53
2019-04-03 20:00:00 8.8 14 Noroeste 31 Noroeste 0 -- -- 48
2019-04-03 19:00:00 8.9 21 Noroeste 36 Noroeste 0 -- -- 50
2019-04-03 18:00:00 10.1 19 Noroeste 40 Oeste 0 -- -- 45
2019-04-03 17:00:00 10.3 23 Noroeste 39 Noroeste 0 -- -- 43
2019-04-03 16:00:00 10.9 25 Noroeste 41 Noroeste 0 -- -- 43
2019-04-03 15:00:00 10.5 22 Noroeste 33 Noroeste 0 -- -- 46
2019-04-03 14:00:00 9 15 Noroeste 31 Noroeste 0 -- -- 53
2019-04-03 13:00:00 8.7 21 Noroeste 35 Noroeste 0 -- -- 56
2019-04-03 12:00:00 7.4 20 Noroeste 31 Noroeste 0 -- -- 64
2019-04-03 11:00:00 5.6 17 Noroeste 28 Oeste 0 -- -- 70
2019-04-03 10:00:00 5.5 14 Oeste 25 Oeste 0 -- -- 72
2019-04-03 09:00:00 4.2 8 Oeste 17 Oeste 0 -- -- 86
2019-04-03 08:00:00 4.5 12 Oeste 18 Oeste 0 -- -- 87
2019-04-03 07:00:00 4.7 5 Oeste 14 Oeste 0 -- -- 93
2019-04-03 06:00:00 4.6 8 Sudoeste 14 Sudoeste 0 -- -- 94
2019-04-03 05:00:00 4.7 9 Sudoeste 13 Sudoeste 0 -- -- 92
2019-04-03 04:00:00 4.4 6 Sudoeste 11 Sudoeste 0 -- -- 89
2019-04-03 03:00:00 5.5 7 Sudoeste 11 Sudoeste 0 -- -- 86
2019-04-03 02:00:00 6.4 8 Sur 12 Sudoeste 0 -- -- 81
2019-04-03 01:00:00 7.1 8 Sudoeste 12 Sudoeste 0 -- -- 77
2019-04-03 00:00:00 7.7 7 Sudoeste 12 Oeste 0 -- -- 72
2019-04-02 23:00:00 9.1 10 Oeste 15 Oeste 0 -- -- 66
2019-04-02 22:00:00 10 7 Oeste 13 Oeste 0 -- -- 51
2019-04-02 21:00:00 12.1 4 Oeste 17 Noroeste 0 -- -- 43
2019-04-02 20:00:00 15.2 13 Oeste 30 Oeste 0 -- -- 37
2019-04-02 19:00:00 16.1 18 Noroeste 48 Noroeste 0 -- -- 37
2019-04-02 18:00:00 16.7 20 Oeste 33 Oeste 0 -- -- 34
2019-04-02 17:00:00 17 19 Oeste 45 Oeste 0 -- -- 35
2019-04-02 16:00:00 16.7 17 Oeste 31 Oeste 0 -- -- 38
2019-04-02 15:00:00 15.9 15 Oeste 28 Sudoeste 0 -- -- 45
2019-04-02 14:00:00 14.9 15 Oeste 24 Oeste 0 -- -- 47
2019-04-02 13:00:00 13.7 10 Sudoeste 23 Sudoeste 0 -- -- 61
2019-04-02 12:00:00 12.6 10 Oeste 19 Oeste 0 -- -- 68
2019-04-02 11:00:00 11.7 9 Oeste 18 Oeste 0 -- -- 71
2019-04-02 10:00:00 8.9 7 Sudoeste 12 Sudoeste 0 -- -- 83
2019-04-02 09:00:00 7.9 7 Sudoeste 11 Sudoeste 0 -- -- 89
2019-04-02 08:00:00 6 6 Sudoeste 9 Sudoeste 0 -- -- 90
2019-04-02 07:00:00 7.2 6 Sudoeste 13 Sudoeste 0 -- -- 87
2019-04-02 06:00:00 8.2 9 Sudoeste 13 Sudoeste 0 -- -- 85
2019-04-02 05:00:00 8.4 10 Sudoeste 14 Sur 0 -- -- 85
2019-04-02 04:00:00 8.5 4 Sudoeste 12 Sur 0 -- -- 83
2019-04-02 03:00:00 8.4 8 Sur 11 Sur 0 -- -- 84
2019-04-02 02:00:00 7.5 4 Sudoeste 12 Sur 0 -- -- 82
2019-04-02 01:00:00 8.8 8 Sur 11 Sur 0 -- -- 77
2019-04-02 00:00:00 8.9 8 Sur 10 Sur 0 -- -- 77
2019-04-01 23:00:00 9.7 4 Oeste 16 Noroeste 0 -- -- 70
2019-04-01 22:00:00 11.1 9 Noroeste 18 Noroeste 0 -- -- 69
2019-04-01 21:00:00 11.3 6 Oeste 13 Oeste 0 -- -- 69
2019-04-01 20:00:00 12.8 7 Oeste 15 Sudoeste 0 -- -- 63
2019-04-01 19:00:00 13.3 11 Sudoeste 25 Sur 0 -- -- 60
2019-04-01 18:00:00 13.2 19 Sudoeste 27 Sudoeste 0 -- -- 63
2019-04-01 17:00:00 16 6 Norte 17 Norte 0 -- -- 43
2019-04-01 16:00:00 16.5 6 Nordeste 17 Nordeste 0 -- -- 42
2019-04-01 15:00:00 15.5 9 Norte 14 Norte 0 -- -- 45
2019-04-01 14:00:00 14.5 9 Nordeste 15 Nordeste 0 -- -- 53
2019-04-01 13:00:00 13.6 6 Este 15 Nordeste 0 -- -- 60
2019-04-01 12:00:00 12 11 Nordeste 17 Nordeste 0 -- -- 65
2019-04-01 11:00:00 9.5 8 Nordeste 16 Este 0 -- -- 75
2019-04-01 10:00:00 6.9 11 Este 15 Este 0 -- -- 83
2019-04-01 09:00:00 4.6 8 Este 13 Este 0 -- -- 91
2019-04-01 08:00:00 3.3 8 Este 11 Este 0 -- -- 90
2019-04-01 07:00:00 3.8 6 Este 9 Este 0 -- -- 89
2019-04-01 06:00:00 3.8 3 Norte 8 Sur 0 -- -- 88
2019-04-01 05:00:00 4.7 6 Sudeste 9 Este 0 -- -- 86
2019-04-01 04:00:00 4.4 5 Este 11 Este 0 -- -- 87
2019-04-01 03:00:00 6.1 3 Sur 7 Sur 0 -- -- 78
2019-04-01 02:00:00 8.4 3 Sudeste 14 Sudoeste 0 -- -- 72
2019-04-01 01:00:00 9.4 6 Este 12 Sudoeste 0 -- -- 68
2019-04-01 00:00:00 9.9 6 Sur 10 Sur 0 -- -- 65
2019-03-31 23:00:00 8.9 5 Sur 19 Este 0 -- -- 69
2019-03-31 22:00:00 9.9 5 Sudoeste 9 Oeste 0 -- -- 64
2019-03-31 21:00:00 11.8 4 Sudeste 15 Sudeste 0 -- -- 59
2019-03-31 20:00:00 14.2 6 Sudoeste 14 Sudoeste 0 -- -- 49
2019-03-31 19:00:00 15.5 10 Sudoeste 17 Sudoeste 0 -- -- 43
2019-03-31 18:00:00 15.4 15 Sur 28 Sudeste 0 -- -- 43
2019-03-31 17:00:00 14.9 15 Sur 27 Sur 0 -- -- 44
2019-03-31 16:00:00 17.2 12 Este 23 Este 0 -- -- 34
2019-03-31 15:00:00 16.7 11 Nordeste 24 Nordeste 0 -- -- 37
2019-03-31 14:00:00 16.7 9 Nordeste 23 Nordeste 0 -- -- 40
2019-03-31 13:00:00 15 6 Norte 15 Norte 0 -- -- 45
2019-03-31 12:00:00 12.2 4 Norte 12 Nordeste 0 -- -- 54
2019-03-31 11:00:00 8.8 8 Nordeste 10 Este 0 -- -- 65
2019-03-31 10:00:00 5.8 3 Nordeste 6 Noroeste 0 -- -- 77
2019-03-31 09:00:00 1.5 0 Calma 7 Este 0 -- -- 89
2019-03-31 08:00:00 1 4 Este 7 Este 0 -- -- 85
2019-03-31 07:00:00 1.7 0 Calma 10 Sur 0 -- -- 81
2019-03-31 06:00:00 2.3 0 Calma 11 Nordeste 0 -- -- 80
2019-03-31 05:00:00 4.3 6 Sudeste 13 Sudeste 0 -- -- 75
2019-03-31 03:00:00 5.4 8 Sudeste 10 Sudeste 0 -- -- 72
2019-03-31 01:00:00 6.3 8 Sur 14 Sudeste 0 -- -- 69
2019-03-31 00:00:00 6.7 9 Este 13 Sudeste 0 -- -- 67
2019-03-30 23:00:00 9.4 5 Sur 11 Sur 0 -- -- 58
2019-03-30 22:00:00 12.1 8 Sur 16 Sur 0 -- -- 48
2019-03-30 21:00:00 13 8 Sudeste 14 Sudeste 0 -- -- 38
2019-03-30 20:00:00 14.2 3 Norte 13 Nordeste 0 -- -- 42
2019-03-30 19:00:00 16.7 3 Norte 17 Noroeste 0 -- -- 32
2019-03-30 18:00:00 17.7 9 Norte 16 Este 0 -- -- 31
2019-03-30 17:00:00 17.9 8 Nordeste 22 Nordeste 0 -- -- 30
2019-03-30 16:00:00 18.3 5 Norte 19 Nordeste 0 -- -- 30
2019-03-30 15:00:00 17.7 8 Nordeste 18 Este 0 -- -- 31
2019-03-30 14:00:00 17.3 5 Oeste 13 Noroeste 0 -- -- 33
2019-03-30 13:00:00 16.6 8 Norte 19 Norte 0 -- -- 32
2019-03-30 12:00:00 16 8 Noroeste 13 Noroeste 0 -- -- 37
2019-03-30 11:00:00 14 4 Noroeste 8 Oeste 0 -- -- 42
2019-03-30 10:00:00 11.7 3 Noroeste 9 Oeste 0 -- -- 49
2019-03-30 09:00:00 8.8 7 Sudeste 19 Sudeste 0 -- -- 54
2019-03-30 08:00:00 4.8 13 Sudeste 17 Sudeste 0 -- -- 61
2019-03-30 07:00:00 3.1 6 Sudeste 14 Sudeste 0 -- -- 67
2019-03-30 06:00:00 3 8 Sudeste 10 Sudeste 0 -- -- 68
2019-03-30 05:00:00 2.5 7 Sudeste 12 Sudeste 0 -- -- 73
2019-03-30 04:00:00 2.9 8 Sudeste 10 Sudeste 0 -- -- 72
2019-03-30 03:00:00 3.2 4 Sur 7 Sudeste 0 -- -- 70
2019-03-30 02:00:00 3 5 Sur 8 Sudeste 0 -- -- 72
2019-03-30 01:00:00 4.5 0 Calma 8 Este 0 -- -- 65
2019-03-30 00:00:00 6.8 2 Sur 12 Sur 0 -- -- 56
2019-03-29 23:00:00 8.2 9 Sudeste 19 Sudeste 0 -- -- 52
2019-03-29 22:00:00 9 7 Sudoeste 11 Sudoeste 0 -- -- 51
2019-03-29 21:00:00 11.1 5 Sudoeste 18 Sudoeste 0 -- -- 47
2019-03-29 20:00:00 12.5 0 Calma 9 Noroeste 0 -- -- 44
2019-03-29 19:00:00 15.3 7 Noroeste 15 Noroeste 0 -- -- 36
2019-03-29 18:00:00 17.3 9 Noroeste 16 Noroeste 0 -- -- 31
2019-03-29 17:00:00 17.5 9 Noroeste 17 Noroeste 0 -- -- 30
2019-03-29 16:00:00 17 8 Nordeste 21 Norte 0 -- -- 28
2019-03-29 15:00:00 17 7 Norte 18 Norte 0 -- -- 34
2019-03-29 14:00:00 16.4 6 Noroeste 13 Noroeste 0 -- -- 32
2019-03-29 13:00:00 15.4 7 Oeste 15 Oeste 0 -- -- 31
2019-03-29 12:00:00 13.8 7 Noroeste 15 Noroeste 0 -- -- 43
2019-03-29 11:00:00 11.2 6 Noroeste 12 Oeste 0 -- -- 53
2019-03-29 10:00:00 8.2 4 Noroeste 6 Norte 0 -- -- 60
2019-03-29 09:00:00 4.8 0 Calma 3 Noroeste 0 -- -- 68
2019-03-29 08:00:00 0.1 0 Calma 4 Sudeste 0 -- -- 83
2019-03-29 07:00:00 0.1 5 Sudeste 9 Este 0 -- -- 79
2019-03-29 06:00:00 -0.5 2 Nordeste 4 Este 0 -- -- 79
2019-03-29 05:00:00 0.5 3 Este 9 Sudeste 0 -- -- 76
2019-03-29 04:00:00 1.4 4 Sudeste 8 Este 0 -- -- 72
2019-03-29 03:00:00 1.5 3 Este 9 Este 0 -- -- 73
2019-03-29 02:00:00 2.5 3 Este 8 Sudeste 0 -- -- 70
2019-03-29 01:00:00 3.4 5 Sur 9 Sudeste 0 -- -- 68
2019-03-29 00:00:00 4.4 2 Noroeste 5 Oeste 0 -- -- 62
2019-03-28 23:00:00 6.7 3 Sudeste 14 Este 0 -- -- 55
2019-03-28 22:00:00 7.7 7 Este 10 Este 0 -- -- 51
2019-03-28 21:00:00 9.7 2 Norte 8 Norte 0 -- -- 46
2019-03-28 20:00:00 12.4 3 Norte 13 Norte 0 -- -- 39
2019-03-28 19:00:00 15.6 9 Norte 18 Nordeste 0 -- -- 37
2019-03-28 18:00:00 17.3 6 Nordeste 15 Norte 0 -- -- 30
2019-03-28 17:00:00 17.3 5 Nordeste 18 Norte 0 -- -- 27
2019-03-28 16:00:00 16.7 7 Este 18 Nordeste 0 -- -- 26
2019-03-28 15:00:00 16.1 10 Nordeste 22 Nordeste 0 -- -- 26
2019-03-28 14:00:00 15.4 5 Nordeste 18 Norte 0 -- -- 31
2019-03-28 13:00:00 14.3 9 Nordeste 18 Nordeste 0 -- -- 38
2019-03-28 12:00:00 11.7 14 Nordeste 21 Nordeste 0 -- -- 41
2019-03-28 11:00:00 9.6 11 Nordeste 22 Nordeste 0 -- -- 45
2019-03-28 10:00:00 6.6 15 Nordeste 23 Nordeste 0 -- -- 48
2019-03-28 09:00:00 5 14 Nordeste 22 Este 0 -- -- 50
2019-03-28 08:00:00 1.6 9 Nordeste 15 Nordeste 0 -- -- 58
2019-03-28 07:00:00 0.6 8 Nordeste 12 Este 0 -- -- 59
2019-03-28 06:00:00 1.3 4 Nordeste 19 Este 0 -- -- 55
2019-03-28 05:00:00 1.7 11 Este 15 Este 0 -- -- 55
2019-03-28 04:00:00 2.9 12 Este 19 Este 0 -- -- 50
2019-03-28 03:00:00 4.5 14 Este 22 Este 0 -- -- 45
2019-03-28 02:00:00 5.1 9 Nordeste 20 Este 0 -- -- 44
2019-03-28 01:00:00 7.3 11 Este 23 Este 0 -- -- 39
2019-03-28 00:00:00 6.7 4 Este 23 Nordeste 0 -- -- 41
2019-03-27 23:00:00 8 14 Este 21 Nordeste 0 -- -- 39
2019-03-27 22:00:00 9.9 17 Este 24 Nordeste 0 -- -- 36
2019-03-27 21:00:00 9.2 11 Este 15 Nordeste 0 -- -- 42
2019-03-27 20:00:00 12.2 8 Norte 15 Nordeste 0 -- -- 37
2019-03-27 19:00:00 16.2 12 Nordeste 24 Nordeste 0 -- -- 29
2019-03-27 18:00:00 17 18 Nordeste 28 Nordeste 0 -- -- 24
2019-03-27 17:00:00 17.2 18 Nordeste 30 Nordeste 0 -- -- 24
2019-03-27 16:00:00 17.1 13 Nordeste 28 Norte 0 -- -- 29
2019-03-27 15:00:00 16.5 9 Nordeste 22 Norte 0 -- -- 30
2019-03-27 14:00:00 15.2 7 Nordeste 27 Este 0 -- -- 35
2019-03-27 13:00:00 13.6 12 Nordeste 22 Nordeste 0 -- -- 39
2019-03-27 12:00:00 11.4 14 Nordeste 23 Nordeste 0 -- -- 47
2019-03-27 11:00:00 9 15 Nordeste 23 Este 0 -- -- 49
2019-03-27 10:00:00 6.1 14 Nordeste 22 Nordeste 0 -- -- 53
2019-03-27 09:00:00 4.2 13 Nordeste 18 Nordeste 0 -- -- 57
2019-03-27 08:00:00 1.4 9 Este 21 Este 0 -- -- 64
2019-03-27 07:00:00 1.1 14 Este 21 Este 0 -- -- 63
2019-03-27 06:00:00 0.9 12 Este 22 Nordeste 0 -- -- 60
2019-03-27 05:00:00 1.5 15 Nordeste 22 Nordeste 0 -- -- 55
2019-03-27 04:00:00 2.3 13 Este 26 Este 0 -- -- 50
2019-03-27 03:00:00 2.3 13 Este 18 Este 0 -- -- 48
2019-03-27 02:00:00 4.5 8 Este 19 Este 0 -- -- 42
2019-03-27 01:00:00 5.9 10 Este 39 Nordeste 0 -- -- 38
2019-03-27 00:00:00 7.1 15 Este 41 Nordeste 0 -- -- 37
2019-03-26 23:00:00 8.8 30 Nordeste 44 Nordeste 0 -- -- 34
2019-03-26 22:00:00 10.2 28 Nordeste 42 Nordeste 0 -- -- 32
2019-03-26 21:00:00 12.1 25 Nordeste 40 Nordeste 0 -- -- 30
2019-03-26 20:00:00 14 20 Nordeste 33 Nordeste 0 -- -- 31
2019-03-26 19:00:00 17.1 24 Nordeste 41 Nordeste 0 -- -- 28
2019-03-26 18:00:00 18.1 26 Nordeste 46 Nordeste 0 -- -- 26
2019-03-26 17:00:00 18.1 28 Nordeste 41 Nordeste 0 -- -- 28
2019-03-26 16:00:00 17.6 27 Nordeste 43 Nordeste 0 -- -- 31
2019-03-26 15:00:00 16.5 26 Nordeste 41 Este 0 -- -- 33
2019-03-26 14:00:00 14.8 27 Nordeste 39 Nordeste 0 -- -- 39
2019-03-26 13:00:00 12.8 26 Nordeste 44 Este 0 -- -- 43
2019-03-26 12:00:00 10.8 31 Nordeste 41 Nordeste 0 -- -- 48
2019-03-26 11:00:00 8.3 28 Nordeste 43 Este 0 -- -- 60
2019-03-26 10:00:00 6 26 Nordeste 44 Este 0 -- -- 68
2019-03-26 09:00:00 3.2 22 Este 31 Nordeste 0 -- -- 80
2019-03-26 08:00:00 0.2 7 Este 16 Este 0 -- -- 85
2019-03-26 07:00:00 0 13 Este 21 Nordeste 0 -- -- 84
2019-03-26 06:00:00 0.8 10 Este 26 Este 0 -- -- 79
2019-03-26 05:00:00 1.9 23 Nordeste 46 Nordeste 0 -- -- 74
2019-03-26 04:00:00 2.7 34 Nordeste 45 Nordeste 0 -- -- 70
2019-03-26 03:00:00 3.4 23 Nordeste 38 Nordeste 0 -- -- 65
2019-03-26 02:00:00 4.4 22 Nordeste 44 Nordeste 0 -- -- 62
2019-03-26 01:00:00 4.9 20 Nordeste 30 Nordeste 0 -- -- 66
2019-03-26 00:00:00 6.6 19 Este 35 Este 0 -- -- 58
2019-03-25 23:00:00 7.6 23 Nordeste 37 Nordeste 0 -- -- 58
2019-03-25 22:00:00 8.8 27 Nordeste 38 Nordeste 0 -- -- 57
2019-03-25 21:00:00 10.5 23 Nordeste 34 Nordeste 0 -- -- 46
2019-03-25 20:00:00 11.7 15 Nordeste 37 Nordeste 0 -- -- 44
2019-03-25 19:00:00 14.8 27 Nordeste 38 Nordeste 0 -- -- 38
2019-03-25 18:00:00 16.2 29 Nordeste 42 Nordeste 0 -- -- 32
2019-03-25 17:00:00 17.3 28 Nordeste 42 Nordeste 0 -- -- 28
2019-03-25 16:00:00 17.7 24 Nordeste 38 Nordeste 0 -- -- 33
2019-03-25 15:00:00 17.3 24 Nordeste 36 Nordeste 0 -- -- 43
2019-03-25 14:00:00 16.3 22 Nordeste 33 Nordeste 0 -- -- 46
2019-03-25 13:00:00 14.9 22 Nordeste 33 Nordeste 0 -- -- 49
2019-03-25 12:00:00 13.6 21 Nordeste 31 Nordeste 0 -- -- 51
2019-03-25 11:00:00 11.6 18 Nordeste 26 Nordeste 0 -- -- 57
2019-03-25 10:00:00 9.5 18 Nordeste 32 Este 0 -- -- 66
2019-03-25 09:00:00 7 20 Este 31 Este 0 -- -- 71
2019-03-25 08:00:00 4.3 13 Nordeste 18 Nordeste 0 -- -- 80
2019-03-25 07:00:00 3.2 11 Nordeste 15 Este 0 -- -- 81
2019-03-25 06:00:00 4 4 Este 15 Este 0 -- -- 77
2019-03-25 05:00:00 5 7 Este 11 Este 0 -- -- 74
2019-03-25 04:00:00 5.1 9 Nordeste 12 Este 0 -- -- 73
2019-03-25 03:00:00 6.2 5 Nordeste 18 Este 0 -- -- 66
2019-03-25 02:00:00 6.5 13 Este 19 Este 0 -- -- 63
2019-03-25 01:00:00 7.5 16 Este 26 Este 0 -- -- 60
2019-03-25 00:00:00 6.1 9 Este 14 Norte 0 -- -- 67
2019-03-24 23:00:00 7.7 7 Este 10 Este 0 -- -- 60
2019-03-24 22:00:00 9.4 4 Este 11 Sudeste 0 -- -- 55
2019-03-24 21:00:00 12.3 9 Este 13 Este 0 -- -- 44
2019-03-24 20:00:00 13.6 7 Nordeste 16 Nordeste 0 -- -- 43
2019-03-24 19:00:00 17.3 13 Nordeste 33 Nordeste 0 -- -- 37
2019-03-24 18:00:00 18.6 22 Nordeste 32 Nordeste 0 -- -- 33
2019-03-24 17:00:00 18.9 24 Nordeste 40 Nordeste 0 -- -- 34
2019-03-24 16:00:00 18.7 21 Nordeste 37 Nordeste 0 -- -- 35
2019-03-24 15:00:00 18.4 24 Nordeste 41 Nordeste 0 -- -- 37
2019-03-24 14:00:00 17.7 25 Nordeste 39 Nordeste 0 -- -- 40
2019-03-24 13:00:00 17.3 29 Nordeste 41 Nordeste 0 -- -- 39
2019-03-24 12:00:00 16.2 22 Nordeste 30 Nordeste 0 -- -- 43
2019-03-24 11:00:00 13.6 19 Este 26 Este 0 -- -- 51
2019-03-24 10:00:00 11.3 16 Este 23 Este 0 -- -- 61
2019-03-24 09:00:00 8.4 13 Este 18 Nordeste 0 -- -- 68
2019-03-24 08:00:00 5.3 11 Nordeste 20 Este 0 -- -- 76
2019-03-24 07:00:00 5.3 12 Este 19 Este 0 -- -- 75
2019-03-24 06:00:00 6.6 13 Este 15 Este 0 -- -- 70
2019-03-24 05:00:00 7 9 Este 14 Este 0 -- -- 70
2019-03-24 04:00:00 8.7 9 Este 14 Este 0 -- -- 66
2019-03-24 03:00:00 10.1 12 Sudeste 15 Este 0 -- -- 60
2019-03-24 02:00:00 9.3 3 Sudeste 7 Sudeste 0 -- -- 68
2019-03-24 01:00:00 9.4 3 Nordeste 7 Este 0 -- -- 66
2019-03-24 00:00:00 11 4 Este 10 Este 0 -- -- 58
2019-03-23 23:00:00 12 4 Sudeste 8 Este 0 -- -- 54
2019-03-23 22:00:00 12.1 4 Nordeste 10 Nordeste 0 -- -- 54
2019-03-23 21:00:00 13.1 3 Este 10 Nordeste 0 -- -- 49
2019-03-23 20:00:00 15 9 Nordeste 18 Este 0 -- -- 45
2019-03-23 19:00:00 15.9 8 Nordeste 24 Nordeste 0 -- -- 46
2019-03-23 18:00:00 18.1 17 Este 27 Este 0 -- -- 35
2019-03-23 17:00:00 18.7 15 Este 32 Este 0 -- -- 33
2019-03-23 16:00:00 18.2 19 Nordeste 26 Nordeste 0 -- -- 32
2019-03-23 15:00:00 18.4 7 Este 21 Este 0 -- -- 34
2019-03-23 14:00:00 18.1 8 Sudeste 15 Nordeste 0 -- -- 37
2019-03-23 13:00:00 16.6 12 Este 28 Este 0 -- -- 41
2019-03-23 12:00:00 15 2 Nordeste 9 Norte 0 -- -- 44
2019-03-23 11:00:00 12.6 4 Norte 9 Norte 0 -- -- 54
2019-03-23 10:00:00 9.6 5 Nordeste 10 Este 0 -- -- 61
2019-03-23 09:00:00 6.1 5 Nordeste 8 Nordeste 0 -- -- 68
2019-03-23 08:00:00 1.9 0 Calma 12 Este 0 -- -- 77
2019-03-23 07:00:00 0.9 5 Este 9 Este 0 -- -- 76
2019-03-23 06:00:00 0.4 4 Este 6 Este 0 -- -- 81
2019-03-23 05:00:00 -0.1 0 Calma 7 Este 0 -- -- 83
2019-03-23 04:00:00 0.4 4 Nordeste 5 Nordeste 0 -- -- 78
2019-03-23 03:00:00 3.1 3 Sudeste 12 Este 0 -- -- 69
2019-03-23 02:00:00 4.2 5 Sudeste 12 Sudeste 0 -- -- 64
2019-03-23 01:00:00 4.7 8 Sudeste 15 Este 0 -- -- 64
2019-03-23 00:00:00 6.1 7 Sudeste 13 Este 0 -- -- 59
2019-03-22 23:00:00 7.4 10 Este 13 Este 0 -- -- 55
2019-03-22 22:00:00 6.5 3 Sudeste 9 Este 0 -- -- 57
2019-03-22 21:00:00 8.3 6 Nordeste 12 Nordeste 0 -- -- 52
2019-03-22 20:00:00 10.4 8 Nordeste 14 Nordeste 0 -- -- 48
2019-03-22 19:00:00 14.3 12 Nordeste 20 Nordeste 0 -- -- 37
2019-03-22 18:00:00 15.8 12 Nordeste 25 Norte 0 -- -- 33
2019-03-22 17:00:00 16.1 14 Norte 24 Este 0 -- -- 33
2019-03-22 16:00:00 15.9 9 Nordeste 22 Nordeste 0 -- -- 35
2019-03-22 15:00:00 15.4 9 Nordeste 20 Nordeste 0 -- -- 36
2019-03-22 14:00:00 14.8 6 Nordeste 21 Norte 0 -- -- 35
2019-03-22 13:00:00 13.9 4 Noroeste 14 Noroeste 0 -- -- 39
2019-03-22 12:00:00 13 4 Nordeste 8 Nordeste 0 -- -- 42
2019-03-22 11:00:00 10.5 3 Nordeste 8 Nordeste 0 -- -- 51
2019-03-22 10:00:00 7.3 4 Nordeste 10 Este 0 -- -- 58
2019-03-22 09:00:00 2.7 7 Este 12 Este 0 -- -- 74
2019-03-22 08:00:00 -1.6 3 Este 4 Nordeste 0 -- -- 87
2019-03-22 07:00:00 -1.1 0 Calma 14 Este 0 -- -- 83
2019-03-22 06:00:00 0.6 11 Sudeste 15 Sudeste 0 -- -- 79
2019-03-22 05:00:00 -0.8 2 Nordeste 10 Sudeste 0 -- -- 84
2019-03-22 04:00:00 -0.3 0 Calma 4 Sudeste 0 -- -- 83
2019-03-22 03:00:00 0.5 3 Este 4 Sudeste 0 -- -- 81
2019-03-22 02:00:00 2.2 3 Sur 6 Sudeste 0 -- -- 74
2019-03-22 01:00:00 4 6 Sudeste 12 Este 0 -- -- 68
2019-03-22 00:00:00 4.8 8 Sudeste 17 Sudeste 0 -- -- 66
2019-03-21 23:00:00 5.1 6 Sudeste 15 Sudeste 0 -- -- 65
2019-03-21 22:00:00 6.6 10 Este 13 Este 0 -- -- 60
2019-03-21 21:00:00 6.8 2 Nordeste 6 Norte 0 -- -- 59
2019-03-21 20:00:00 8.9 5 Norte 13 Norte 0 -- -- 52
2019-03-21 19:00:00 12 10 Norte 16 Noroeste 0 -- -- 48
2019-03-21 18:00:00 13.5 9 Norte 16 Norte 0 -- -- 39
2019-03-21 17:00:00 13.9 9 Norte 24 Nordeste 0 -- -- 37
2019-03-21 16:00:00 14 13 Norte 22 Norte 0 -- -- 40
2019-03-21 15:00:00 13.8 8 Norte 21 Noroeste 0 -- -- 41
2019-03-21 14:00:00 12.7 6 Norte 20 Nordeste 0 -- -- 41
2019-03-21 13:00:00 11.5 10 Este 17 Nordeste 0 -- -- 47
2019-03-21 12:00:00 9.6 11 Nordeste 22 Este 0 -- -- 52
2019-03-21 11:00:00 7.5 13 Nordeste 21 Nordeste 0 -- -- 59
2019-03-21 10:00:00 4.1 14 Este 24 Este 0 -- -- 71
2019-03-21 09:00:00 1.6 15 Nordeste 23 Nordeste 0 -- -- 77
2019-03-21 08:00:00 -1 5 Nordeste 10 Nordeste 0 -- -- 86
2019-03-21 07:00:00 -1.1 7 Nordeste 18 Nordeste 0 -- -- 83
2019-03-21 06:00:00 -2 3 Este 8 Nordeste 0 -- -- 84
2019-03-21 05:00:00 -1.5 6 Nordeste 8 Este 0 -- -- 81
2019-03-21 04:00:00 -0.8 0 Calma 8 Nordeste 0 -- -- 80
2019-03-21 03:00:00 0.5 5 Nordeste 14 Nordeste 0 -- -- 76
2019-03-21 02:00:00 1 6 Este 10 Nordeste 0 -- -- 75
2019-03-21 01:00:00 1.6 7 Nordeste 15 Este 0 -- -- 73
2019-03-21 00:00:00 3.7 13 Este 18 Este 0 -- -- 66
2019-03-20 23:00:00 3.7 9 Este 15 Este 0 -- -- 66
2019-03-20 22:00:00 5.5 9 Nordeste 13 Nordeste 0 -- -- 61
2019-03-20 21:00:00 6.4 8 Nordeste 11 Nordeste 0 -- -- 58
2019-03-20 20:00:00 8.1 7 Nordeste 23 Nordeste 0 -- -- 53
2019-03-20 19:00:00 11.2 18 Nordeste 29 Nordeste 0 -- -- 45
2019-03-20 18:00:00 12.1 21 Nordeste 35 Norte 0 -- -- 45
2019-03-20 17:00:00 12.3 19 Nordeste 34 Este 0 -- -- 45
2019-03-20 16:00:00 11.7 22 Nordeste 36 Nordeste 0 -- -- 46
2019-03-20 15:00:00 11.5 23 Nordeste 48 Nordeste 0 -- -- 48
2019-03-20 14:00:00 10.5 25 Nordeste 41 Nordeste 0 -- -- 51
2019-03-20 13:00:00 9.3 27 Nordeste 43 Nordeste 0 -- -- 55
2019-03-20 12:00:00 8.8 33 Nordeste 47 Nordeste 0 -- -- 57
2019-03-20 11:00:00 7.7 31 Nordeste 45 Nordeste 0 -- -- 62
2019-03-20 10:00:00 5.8 21 Nordeste 32 Nordeste 0 -- -- 72
2019-03-20 09:00:00 3.4 17 Nordeste 24 Nordeste 0 -- -- 81
2019-03-20 08:00:00 1.2 12 Nordeste 20 Nordeste 0 -- -- 88
2019-03-20 07:00:00 0.4 10 Este 17 Este 0 -- -- 89
2019-03-20 06:00:00 0.3 13 Este 18 Este 0 -- -- 90
2019-03-20 05:00:00 0.8 11 Nordeste 19 Este 0 -- -- 89
2019-03-20 04:00:00 1.2 14 Este 19 Este 0 -- -- 87
2019-03-20 03:00:00 2.5 16 Este 23 Este 0 -- -- 84
2019-03-20 02:00:00 3.8 18 Este 30 Este 0 -- -- 80
2019-03-20 01:00:00 4.7 22 Este 41 Este 0 -- -- 78
2019-03-20 00:00:00 4.5 16 Este 23 Este 0 -- -- 77
2019-03-19 23:00:00 5.7 15 Este 25 Este 0 -- -- 70
2019-03-19 22:00:00 6.4 12 Este 17 Este 0 -- -- 65
2019-03-19 21:00:00 6.8 11 Este 18 Este 0 -- -- 65
2019-03-19 20:00:00 8.7 5 Nordeste 23 Nordeste 0 -- -- 57
2019-03-19 19:00:00 11.6 12 Nordeste 29 Nordeste 0 -- -- 51
2019-03-19 18:00:00 12.2 20 Nordeste 35 Nordeste 0 -- -- 47
2019-03-19 17:00:00 12.7 22 Nordeste 37 Nordeste 0 -- -- 47
2019-03-19 16:00:00 12.6 22 Nordeste 37 Nordeste 0 -- -- 48
2019-03-19 15:00:00 12.5 21 Nordeste 38 Nordeste 0 -- -- 47
2019-03-19 14:00:00 11.8 23 Este 41 Nordeste 0 -- -- 51
2019-03-19 13:00:00 11.3 25 Nordeste 40 Nordeste 0 -- -- 51
2019-03-19 12:00:00 10.2 26 Nordeste 40 Nordeste 0 -- -- 53
2019-03-19 11:00:00 8.5 23 Este 33 Este 0 -- -- 60
2019-03-19 10:00:00 6.5 18 Nordeste 27 Este 0 -- -- 68
2019-03-19 09:00:00 3.8 14 Nordeste 18 Nordeste 0 -- -- 75
2019-03-19 08:00:00 0.4 8 Este 18 Nordeste 0 -- -- 86
2019-03-19 07:00:00 0.7 10 Este 22 Nordeste 0 -- -- 85
2019-03-19 06:00:00 1.1 16 Este 22 Este 0 -- -- 84
2019-03-19 05:00:00 1 13 Este 18 Nordeste 0 -- -- 82
2019-03-19 04:00:00 1.4 12 Este 23 Este 0 -- -- 79
2019-03-19 03:00:00 1.5 9 Este 14 Nordeste 0 -- -- 79
2019-03-19 02:00:00 1.2 5 Este 9 Nordeste 0 -- -- 79
2019-03-19 01:00:00 2.5 7 Este 14 Este 0 -- -- 74
2019-03-19 00:00:00 3.7 10 Este 18 Este 0 -- -- 70